Weather at Aviosuperficie Falcone

Public forecast

Using degrees Celsius for public forecast. Weather courtesy of forecast.io.

Closest aviation weather report (METAR) to Aviosuperficie Falcone

Closest report is Foggia "Gino Lisa" Airport, 25.0 nm (46.4 km) NW.

2024/05/21 13:01 (retrieved 1 hour ago)

LIBF 211301Z 25018G31KT 220V280 9999 SCT040 27/14 Q1009

Closest aviation forecast (TAF) to Aviosuperficie Falcone

Closest forecast is Foggia "Gino Lisa" Airport, 25.0 nm (46.4 km) NW.

2024/05/21 12:00 (retrieved 2 hours ago)

TAF LIBF 211100Z 2112/2212 25020G30KT 9999 SCT030 BECMG 2118/2120 22014KT BECMG 2208/2210 25020G30KT